aviador You're here:

SBKP Decoded Metar

CAMPINAS in BRAZIL
Report Time2018-07-18 22:00:00
UTC Time2018-07-18 23:55:17
Flight Rules Old
WindCalm
Visibility9999 m
Phenomena:N/A
Clouds:N/A
Expected CloudBase > 6,400 ft AGL from Temp-Dew spread
CeilingNone
Temp24°C (ISA +13)
Dew Point08°C (36% RH)
AAT23.5°C
QNH1020 hPa
Density Alt3,622 ft
Elevation2,169 ft
Report Wrong Elevation
Raw Report
METAR SBKP 182200Z 00000KT CAVOK 24/08 Q1020=

Extra information for SBKP:More info

Metar Taf Metar & Taf Last 4 Metars F.Rules Stats Wind Profile Meteogram Temp Stats Airport Information Weather charts Add Link Nearby VenuesMetar ALERT Operation Metar Decoded Social comments